KCVH

Hollister Municipal Airport

Hollister, California, USA
METAR KCVH 191115Z AUTO 06003KT 10SM CLR 07/06 A3031 RMK A01
Observed Flight Rules
Dec-19 @ 11:15 UTC (25 minutes ago) Visual Flight Rules
Wind Visibility Clouds
60° at 3 knots 10 miles
  • Clear skies
Temperatures Readings
Current 7°C / 45°F
Dewpoint 6°C / 43°F
Humidity 93%
Altimeter 30.31" Hg
Pressure 1026 hPa
Elevation 70
METAR KCVH 191115Z AUTO 06003KT 10SM CLR 07/06 A3031 RMK A01
Observed Flight Rules
Dec-19 @ 11:15 UTC
(25 minutes ago)
VFR
Wind Visibility
60° at 3 knots 10 miles
Clouds
  • Clear skies
Temperature Dewpoint
7°C / 45°F 6°C / 43°F
Humidity Altimeter Pressure
93% 30.31" Hg 1026 hPa